createdAt,value
2023-01-22T00:01:52.367Z,1.70
2023-01-22T00:04:38.913Z,0.60
2023-01-22T00:07:25.664Z,2.53
2023-01-22T00:10:12.850Z,0.70
2023-01-22T00:12:59.027Z,0.73
2023-01-22T00:15:45.421Z,0.50
2023-01-22T00:18:33.475Z,1.63
2023-01-22T00:21:19.777Z,0.80
2023-01-22T00:24:06.439Z,1.20
2023-01-22T00:26:53.042Z,0.80
2023-01-22T00:29:39.561Z,0.60
2023-01-22T00:32:25.727Z,0.70
2023-01-22T00:35:13.902Z,1.17
2023-01-22T00:38:00.620Z,0.80
2023-01-22T00:40:46.700Z,1.00
2023-01-22T00:43:34.639Z,0.80
2023-01-22T00:46:21.036Z,0.70
2023-01-22T00:49:07.659Z,1.50
2023-01-22T00:51:55.323Z,0.70
2023-01-22T00:54:41.783Z,0.83
2023-01-22T00:57:28.368Z,0.67
2023-01-22T01:00:16.178Z,0.87
2023-01-22T01:03:19.476Z,1.23
2023-01-22T01:06:07.491Z,1.03
2023-01-22T01:08:55.226Z,0.90
2023-01-22T01:11:41.719Z,0.80
2023-01-22T01:14:28.097Z,1.00
2023-01-22T01:17:14.557Z,0.90
2023-01-22T01:20:00.989Z,2.00
2023-01-22T01:22:47.528Z,0.87
2023-01-22T01:25:35.218Z,1.17
2023-01-22T01:28:21.797Z,1.00
2023-01-22T01:31:09.436Z,1.43
2023-01-22T01:33:55.982Z,2.23
2023-01-22T01:36:49.990Z,1.43
2023-01-22T01:39:36.226Z,1.17
2023-01-22T01:42:25.793Z,1.60
2023-01-22T01:45:29.129Z,1.50
2023-01-22T01:48:23.528Z,1.27
2023-01-22T01:51:13.021Z,3.20
2023-01-22T01:54:00.691Z,1.23
2023-01-22T01:56:49.311Z,2.70
2023-01-22T01:59:36.912Z,1.30
2023-01-22T02:02:23.724Z,1.93
2023-01-22T02:05:11.244Z,1.50
2023-01-22T02:07:57.718Z,1.60
2023-01-22T02:10:44.473Z,1.20
2023-01-22T02:13:33.095Z,1.77
2023-01-22T02:16:20.909Z,2.07
2023-01-22T02:19:07.336Z,3.03
2023-01-22T02:21:55.113Z,3.00
2023-01-22T02:24:41.508Z,1.93
2023-01-22T02:27:27.736Z,1.73
2023-01-22T02:30:14.783Z,1.60
2023-01-22T02:33:01.260Z,2.37
2023-01-22T02:35:47.389Z,1.63
2023-01-22T02:38:35.127Z,1.90
2023-01-22T02:41:21.550Z,2.10
2023-01-22T02:44:08.521Z,2.43
2023-01-22T02:46:54.673Z,1.57
2023-01-22T02:49:40.901Z,3.13
2023-01-22T02:52:27.263Z,1.60
2023-01-22T02:55:15.127Z,1.53
2023-01-22T02:58:01.336Z,1.77
2023-01-22T03:00:48.060Z,3.03
2023-01-22T03:03:34.258Z,2.20
2023-01-22T03:06:21.722Z,1.30
2023-01-22T03:09:08.859Z,1.70
2023-01-22T03:11:57.174Z,5.27
2023-01-22T03:15:01.178Z,1.80
2023-01-22T03:18:05.356Z,3.97
2023-01-22T03:21:09.208Z,3.30
2023-01-22T03:23:56.212Z,1.80
2023-01-22T03:26:42.552Z,1.83
2023-01-22T03:29:30.533Z,1.73
2023-01-22T03:32:16.943Z,2.50
2023-01-22T03:35:03.618Z,1.73
2023-01-22T03:37:49.797Z,2.50
2023-01-22T03:40:36.217Z,2.20
2023-01-22T03:43:22.502Z,2.77
2023-01-22T03:46:11.920Z,1.60
2023-01-22T03:48:58.556Z,1.50
2023-01-22T03:51:45.210Z,1.83
2023-01-22T03:54:31.579Z,1.90
2023-01-22T03:57:17.942Z,3.00
2023-01-22T04:00:07.339Z,2.10
2023-01-22T04:02:55.151Z,3.10
2023-01-22T04:05:41.475Z,2.70
2023-01-22T04:08:29.143Z,1.53
2023-01-22T04:11:15.835Z,2.17
2023-01-22T04:14:02.198Z,3.60
2023-01-22T04:16:48.625Z,2.40
2023-01-22T04:19:36.253Z,1.97
2023-01-22T04:22:22.412Z,2.70
2023-01-22T04:25:09.391Z,4.30
2023-01-22T04:27:55.711Z,2.23
2023-01-22T04:30:42.753Z,1.97
2023-01-22T04:33:28.957Z,3.07
2023-01-22T04:36:16.349Z,2.40
2023-01-22T04:39:02.698Z,1.80
2023-01-22T04:41:48.976Z,2.50
2023-01-22T04:44:35.251Z,3.53
2023-01-22T04:47:21.665Z,1.50
2023-01-22T04:50:08.090Z,2.80
2023-01-22T04:52:56.540Z,4.23
2023-01-22T04:55:43.601Z,2.47
2023-01-22T04:58:30.031Z,2.10
2023-01-22T05:01:16.515Z,1.80
2023-01-22T05:04:03.233Z,1.83
2023-01-22T05:06:49.600Z,1.83
2023-01-22T05:09:37.590Z,1.60
2023-01-22T05:12:23.976Z,1.63
2023-01-22T05:15:23.209Z,2.00
2023-01-22T05:18:10.341Z,2.30
2023-01-22T05:20:56.444Z,1.87
2023-01-22T05:23:43.764Z,2.30
2023-01-22T05:26:31.501Z,2.47
2023-01-22T05:29:17.863Z,2.60
2023-01-22T05:32:04.352Z,3.10
2023-01-22T05:34:50.522Z,2.90
2023-01-22T05:37:37.010Z,1.60
2023-01-22T05:40:23.384Z,5.17
2023-01-22T05:43:10.817Z,2.63
2023-01-22T05:46:00.974Z,2.23
2023-01-22T05:48:47.627Z,2.13
2023-01-22T05:51:33.875Z,2.40
2023-01-22T05:54:20.161Z,1.93
2023-01-22T05:57:06.509Z,2.43
2023-01-22T05:59:54.823Z,3.40
2023-01-22T06:02:41.198Z,2.40
2023-01-22T06:05:27.725Z,4.50
2023-01-22T06:08:14.555Z,4.00
2023-01-22T06:11:01.450Z,5.27
2023-01-22T06:13:47.901Z,2.57
2023-01-22T06:16:35.524Z,2.10
2023-01-22T06:19:21.962Z,2.20
2023-01-22T06:22:08.260Z,1.90
2023-01-22T06:24:54.673Z,4.30
2023-01-22T06:27:40.917Z,1.53
2023-01-22T06:30:27.419Z,2.70
2023-01-22T06:33:15.149Z,4.43
2023-01-22T06:36:01.548Z,3.10
2023-01-22T06:38:47.729Z,1.83
2023-01-22T06:41:34.188Z,5.50
2023-01-22T06:44:20.290Z,2.27
2023-01-22T06:47:06.713Z,2.63
2023-01-22T06:49:54.280Z,4.23
2023-01-22T06:52:40.632Z,4.30
2023-01-22T06:55:26.815Z,12.23
2023-01-22T06:58:13.321Z,16.27
2023-01-22T07:01:01.061Z,6.07
2023-01-22T07:03:47.662Z,4.60
2023-01-22T07:06:35.525Z,2.57
2023-01-22T07:09:21.878Z,2.87
2023-01-22T07:12:08.344Z,29.10
2023-01-22T07:14:54.586Z,28.83
2023-01-22T07:17:41.218Z,22.17
2023-01-22T07:20:27.615Z,8.67
2023-01-22T07:23:15.512Z,2.97
2023-01-22T07:26:01.782Z,7.10
2023-01-22T07:28:48.062Z,6.17
2023-01-22T07:31:34.369Z,9.53
2023-01-22T07:34:20.671Z,11.10
2023-01-22T07:37:06.938Z,13.27
2023-01-22T07:39:54.970Z,14.10
2023-01-22T07:42:41.400Z,5.50
2023-01-22T07:45:28.056Z,2.30
2023-01-22T07:48:14.233Z,2.20
2023-01-22T07:51:00.915Z,3.57
2023-01-22T07:53:47.556Z,4.27
2023-01-22T07:56:35.345Z,4.03
2023-01-22T07:59:21.683Z,2.93
2023-01-22T08:02:07.806Z,2.50
2023-01-22T08:04:54.358Z,11.63
2023-01-22T08:07:40.778Z,7.63
2023-01-22T08:10:27.384Z,3.83
2023-01-22T08:13:15.687Z,2.53
2023-01-22T08:16:02.257Z,2.33
2023-01-22T08:18:48.725Z,2.43
2023-01-22T08:21:35.069Z,1.90
2023-01-22T08:24:21.461Z,4.07
2023-01-22T08:27:08.071Z,2.87
2023-01-22T08:29:56.163Z,3.70
2023-01-22T08:32:45.398Z,2.70
2023-01-22T08:35:31.897Z,3.50
2023-01-22T08:38:18.140Z,1.40
2023-01-22T08:41:04.961Z,1.10
2023-01-22T08:43:52.550Z,2.23
2023-01-22T08:46:40.991Z,2.47
2023-01-22T08:49:27.583Z,3.57
2023-01-22T08:52:14.103Z,3.53
2023-01-22T08:55:00.281Z,4.50
2023-01-22T08:57:52.877Z,8.17
2023-01-22T09:00:39.456Z,5.70
2023-01-22T09:03:27.175Z,5.13
2023-01-22T09:06:13.782Z,3.77
2023-01-22T09:09:01.727Z,1.60
2023-01-22T09:11:48.349Z,1.80
2023-01-22T09:14:34.513Z,4.27
2023-01-22T09:17:20.877Z,8.37
2023-01-22T09:20:09.431Z,13.57
2023-01-22T09:22:55.835Z,3.03
2023-01-22T09:25:42.024Z,4.03
2023-01-22T09:28:28.247Z,2.97
2023-01-22T09:31:15.082Z,4.37
2023-01-22T09:34:01.460Z,5.20
2023-01-22T09:36:51.655Z,2.53
2023-01-22T09:39:38.480Z,3.30
2023-01-22T09:42:26.934Z,2.77
2023-01-22T09:45:14.800Z,2.70
2023-01-22T09:48:02.933Z,2.17
2023-01-22T09:50:49.883Z,2.60
2023-01-22T09:53:37.371Z,3.50
2023-01-22T09:56:27.556Z,2.60
2023-01-22T09:59:18.055Z,1.23
2023-01-22T10:02:14.280Z,1.60
2023-01-22T10:05:04.121Z,1.70
2023-01-22T10:07:52.606Z,3.43
2023-01-22T10:10:40.713Z,3.83
2023-01-22T10:13:29.158Z,3.33
2023-01-22T10:16:15.550Z,3.30
2023-01-22T10:19:03.793Z,3.43
2023-01-22T10:21:52.706Z,20.63
2023-01-22T10:24:38.985Z,5.87
2023-01-22T10:27:33.091Z,5.10
2023-01-22T10:30:21.897Z,5.77
2023-01-22T10:33:08.857Z,5.10
2023-01-22T10:35:56.970Z,3.93
2023-01-22T10:38:43.538Z,3.20
2023-01-22T10:41:30.942Z,2.47
2023-01-22T10:44:23.277Z,2.00
2023-01-22T10:47:10.224Z,2.20
2023-01-22T10:50:04.616Z,3.63
2023-01-22T10:52:54.907Z,2.33
2023-01-22T10:55:43.083Z,2.10
2023-01-22T10:58:31.599Z,1.40
2023-01-22T11:01:32.382Z,1.73
2023-01-22T11:04:23.088Z,1.60
2023-01-22T11:07:12.978Z,0.90
2023-01-22T11:10:03.596Z,2.30
2023-01-22T11:12:52.162Z,2.83
2023-01-22T11:15:43.497Z,1.80
2023-01-22T11:18:34.339Z,2.23
2023-01-22T11:21:21.989Z,3.40
2023-01-22T11:24:12.939Z,1.40
2023-01-22T11:27:08.948Z,1.30
2023-01-22T11:30:11.163Z,1.43
2023-01-22T11:33:02.652Z,1.60
2023-01-22T11:35:53.093Z,3.43
2023-01-22T11:38:43.825Z,1.07
2023-01-22T11:41:48.540Z,1.50
2023-01-22T11:44:45.037Z,2.27
2023-01-22T11:47:55.841Z,3.87
2023-01-22T11:50:44.668Z,4.70
2023-01-22T11:53:42.231Z,1.80
2023-01-22T11:56:34.162Z,1.73
2023-01-22T11:59:25.125Z,1.60
2023-01-22T12:02:32.638Z,0.87
2023-01-22T12:05:28.815Z,0.93
2023-01-22T12:08:29.077Z,0.90
2023-01-22T12:11:26.607Z,1.70
2023-01-22T12:14:25.526Z,2.93
2023-01-22T12:17:17.354Z,5.00
2023-01-22T12:20:30.986Z,6.80
2023-01-22T12:23:20.364Z,0.93
2023-01-22T12:26:08.997Z,3.07
2023-01-22T12:28:59.098Z,1.80
2023-01-22T12:31:49.104Z,1.50
2023-01-22T12:34:38.458Z,3.43
2023-01-22T12:37:26.646Z,2.20
2023-01-22T12:40:33.103Z,2.30
2023-01-22T12:43:20.710Z,2.70
2023-01-22T12:46:11.479Z,2.53
2023-01-22T12:49:02.838Z,2.57
2023-01-22T12:51:50.254Z,2.73
2023-01-22T12:54:37.000Z,2.33
2023-01-22T12:57:25.547Z,2.70
2023-01-22T13:00:13.565Z,1.00
2023-01-22T13:03:01.940Z,2.43
2023-01-22T13:05:48.440Z,1.63
2023-01-22T13:08:39.766Z,1.90
2023-01-22T13:11:30.774Z,1.43
2023-01-22T13:14:20.334Z,1.23
2023-01-22T13:17:18.686Z,1.60
2023-01-22T13:20:15.614Z,1.77
2023-01-22T13:23:02.162Z,2.07
2023-01-22T13:25:56.194Z,1.17
2023-01-22T13:28:48.705Z,1.07
2023-01-22T13:31:35.222Z,2.40
2023-01-22T13:34:22.110Z,1.87
2023-01-22T13:37:21.184Z,2.73
2023-01-22T13:40:23.230Z,1.63
2023-01-22T13:43:09.580Z,1.63
2023-01-22T13:45:56.852Z,2.07
2023-01-22T13:48:43.326Z,4.00
2023-01-22T13:51:30.177Z,4.30
2023-01-22T13:54:20.053Z,1.97
2023-01-22T13:57:07.238Z,4.30
2023-01-22T13:59:54.480Z,2.63
2023-01-22T14:02:45.468Z,2.60
2023-01-22T14:05:34.160Z,2.13
2023-01-22T14:08:20.284Z,1.83
2023-01-22T14:11:08.042Z,2.23
2023-01-22T14:13:54.803Z,1.73
2023-01-22T14:16:41.652Z,3.33
2023-01-22T14:19:29.054Z,2.33
2023-01-22T14:22:15.601Z,1.70
2023-01-22T14:25:02.207Z,4.77
2023-01-22T14:27:50.590Z,5.10
2023-01-22T14:30:44.161Z,8.10
2023-01-22T14:33:31.292Z,5.83
2023-01-22T14:36:18.571Z,6.63
2023-01-22T14:39:06.790Z,5.47
2023-01-22T14:41:53.153Z,7.50
2023-01-22T14:44:41.220Z,2.83
2023-01-22T14:47:27.789Z,5.17
2023-01-22T14:50:14.001Z,5.63
2023-01-22T14:53:00.537Z,4.50
2023-01-22T14:55:46.722Z,5.53
2023-01-22T14:58:32.897Z,6.20
2023-01-22T15:01:21.489Z,5.23
2023-01-22T15:04:08.333Z,2.10
2023-01-22T15:06:54.358Z,3.53
2023-01-22T15:09:40.630Z,3.20
2023-01-22T15:12:27.333Z,6.20
2023-01-22T15:15:13.968Z,7.93
2023-01-22T15:18:01.456Z,6.00
2023-01-22T15:20:47.904Z,5.67
2023-01-22T15:23:34.852Z,3.97
2023-01-22T15:26:24.650Z,5.30
2023-01-22T15:29:13.123Z,4.07
2023-01-22T15:32:17.880Z,2.43
2023-01-22T15:35:07.004Z,4.10
2023-01-22T15:37:53.318Z,4.87
2023-01-22T15:40:40.066Z,4.97
2023-01-22T15:43:26.592Z,4.47
2023-01-22T15:46:13.023Z,5.00
2023-01-22T15:49:00.054Z,5.97
2023-01-22T15:51:48.044Z,5.63
2023-01-22T15:54:34.487Z,8.17
2023-01-22T15:57:20.840Z,11.67
2023-01-22T16:00:07.757Z,11.70
2023-01-22T16:02:54.288Z,8.30
2023-01-22T16:05:40.800Z,11.33
2023-01-22T16:08:28.747Z,5.10
2023-01-22T16:11:15.264Z,4.10
2023-01-22T16:14:01.705Z,5.90
2023-01-22T16:16:48.402Z,6.40
2023-01-22T16:19:34.634Z,6.17
2023-01-22T16:22:21.160Z,8.77
2023-01-22T16:25:09.512Z,10.23
2023-01-22T16:27:55.782Z,12.53
2023-01-22T16:30:43.086Z,23.93
2023-01-22T16:33:30.172Z,14.83
2023-01-22T16:36:17.263Z,9.83
2023-01-22T16:39:03.624Z,4.83
2023-01-22T16:41:52.175Z,8.13
2023-01-22T16:44:38.356Z,15.43
2023-01-22T16:47:24.317Z,12.50
2023-01-22T16:50:11.311Z,18.97
2023-01-22T16:52:57.634Z,15.50
2023-01-22T16:55:44.017Z,12.37
2023-01-22T16:58:32.060Z,12.20
2023-01-22T17:01:18.652Z,9.93
2023-01-22T17:04:05.419Z,16.47
2023-01-22T17:06:52.527Z,14.03
2023-01-22T17:09:39.300Z,16.00
2023-01-22T17:12:26.610Z,16.67
2023-01-22T17:15:14.723Z,15.57
2023-01-22T17:18:01.329Z,16.83
2023-01-22T17:21:01.425Z,21.07
2023-01-22T17:23:48.372Z,20.87
2023-01-22T17:26:34.819Z,22.83
2023-01-22T17:29:21.342Z,40.60
2023-01-22T17:32:09.188Z,66.57
2023-01-22T17:34:55.622Z,41.70
2023-01-22T17:37:42.019Z,24.47
2023-01-22T17:40:29.493Z,22.10
2023-01-22T17:43:16.304Z,26.97
2023-01-22T17:46:02.963Z,30.70
2023-01-22T17:48:52.088Z,33.53
2023-01-22T17:51:38.905Z,33.97
2023-01-22T17:54:25.464Z,45.03
2023-01-22T17:57:12.470Z,53.07
2023-01-22T17:59:59.104Z,42.17
2023-01-22T18:02:45.934Z,43.10
2023-01-22T18:05:35.617Z,30.10
2023-01-22T18:08:22.004Z,75.47
2023-01-22T18:11:09.031Z,51.10
2023-01-22T18:13:55.929Z,50.87
2023-01-22T18:16:42.653Z,42.27
2023-01-22T18:19:29.556Z,27.60
2023-01-22T18:22:17.786Z,24.70
2023-01-22T18:25:04.222Z,82.67
2023-01-22T18:27:51.057Z,222.87
2023-01-22T18:30:38.349Z,125.07
2023-01-22T18:33:24.999Z,80.63
2023-01-22T18:36:14.534Z,144.67
2023-01-22T18:39:03.483Z,49.53
2023-01-22T18:41:49.689Z,43.53
2023-01-22T18:44:36.304Z,21.83
2023-01-22T18:47:22.983Z,35.13
2023-01-22T18:50:12.454Z,20.17
2023-01-22T18:53:00.859Z,72.17
2023-01-22T18:55:48.828Z,39.60
2023-01-22T18:58:35.415Z,36.77
2023-01-22T19:01:22.935Z,36.63
2023-01-22T19:04:10.229Z,26.97
2023-01-22T19:06:57.244Z,38.70
2023-01-22T19:09:43.855Z,104.60
2023-01-22T19:12:31.515Z,40.63
2023-01-22T19:15:18.195Z,30.03
2023-01-22T19:18:04.764Z,40.27
2023-01-22T19:20:51.572Z,34.30
2023-01-22T19:23:38.291Z,12.07
2023-01-22T19:26:25.677Z,11.60
2023-01-22T19:29:14.589Z,14.20
2023-01-22T19:32:00.929Z,13.43
2023-01-22T19:34:47.599Z,18.60
2023-01-22T19:37:34.575Z,16.67
2023-01-22T19:40:21.684Z,17.00
2023-01-22T19:43:09.144Z,13.47
2023-01-22T19:45:57.098Z,10.47
2023-01-22T19:48:44.259Z,12.00
2023-01-22T19:51:31.063Z,8.13
2023-01-22T19:54:18.629Z,7.63
2023-01-22T19:57:06.039Z,6.60
2023-01-22T19:59:52.932Z,19.67
2023-01-22T20:02:41.283Z,24.70
2023-01-22T20:05:27.812Z,22.10
2023-01-22T20:08:14.433Z,24.90
2023-01-22T20:11:01.073Z,30.87
2023-01-22T20:13:48.900Z,27.43
2023-01-22T20:16:35.436Z,24.00
2023-01-22T20:19:23.554Z,33.93
2023-01-22T20:22:11.029Z,25.70
2023-01-22T20:24:59.928Z,25.80
2023-01-22T20:27:47.915Z,24.70
2023-01-22T20:30:34.550Z,43.00
2023-01-22T20:33:21.310Z,34.47
2023-01-22T20:36:10.459Z,41.90
2023-01-22T20:38:57.540Z,33.63
2023-01-22T20:41:44.209Z,24.93
2023-01-22T20:44:32.481Z,18.23
2023-01-22T20:47:18.736Z,26.67
2023-01-22T20:50:05.559Z,27.17
2023-01-22T20:52:55.450Z,16.67
2023-01-22T20:55:41.943Z,15.23
2023-01-22T20:58:28.222Z,14.10
2023-01-22T21:01:16.444Z,12.30
2023-01-22T21:04:03.299Z,10.90
2023-01-22T21:06:49.432Z,7.93
2023-01-22T21:09:39.358Z,9.67
2023-01-22T21:12:25.476Z,9.23
2023-01-22T21:15:12.159Z,8.37
2023-01-22T21:17:58.238Z,9.20
2023-01-22T21:20:44.512Z,11.03
2023-01-22T21:23:31.044Z,5.00
2023-01-22T21:26:19.446Z,4.83
2023-01-22T21:29:07.854Z,4.20
2023-01-22T21:31:54.415Z,5.77
2023-01-22T21:34:42.399Z,5.37
2023-01-22T21:37:28.695Z,4.17
2023-01-22T21:40:15.292Z,5.33
2023-01-22T21:43:20.342Z,5.40
2023-01-22T21:46:26.106Z,4.70
2023-01-22T21:49:20.986Z,5.17
2023-01-22T21:52:09.505Z,13.80
2023-01-22T21:54:56.957Z,11.43
2023-01-22T21:57:44.307Z,13.50
2023-01-22T22:00:32.282Z,9.33
2023-01-22T22:03:18.704Z,9.03
2023-01-22T22:06:05.436Z,12.33
2023-01-22T22:08:51.643Z,22.40
2023-01-22T22:11:38.197Z,13.23
2023-01-22T22:14:24.663Z,7.10
2023-01-22T22:17:12.483Z,10.63
2023-01-22T22:19:58.821Z,13.73
2023-01-22T22:22:46.045Z,8.87
2023-01-22T22:25:32.848Z,6.97
2023-01-22T22:28:19.277Z,6.23
2023-01-22T22:31:08.337Z,6.53
2023-01-22T22:33:57.064Z,8.97
2023-01-22T22:36:43.666Z,9.13
2023-01-22T22:39:30.227Z,7.43
2023-01-22T22:42:16.755Z,6.53
2023-01-22T22:45:03.305Z,9.73
2023-01-22T22:47:49.426Z,6.90
2023-01-22T22:50:40.294Z,4.67
2023-01-22T22:53:26.584Z,9.87
2023-01-22T22:56:13.239Z,6.27
2023-01-22T22:59:01.058Z,7.13
2023-01-22T23:01:47.387Z,7.07
2023-01-22T23:04:34.175Z,13.53
2023-01-22T23:07:21.881Z,7.80
2023-01-22T23:10:28.692Z,9.00
2023-01-22T23:13:15.298Z,9.30
2023-01-22T23:16:02.217Z,5.87
2023-01-22T23:18:50.853Z,5.33
2023-01-22T23:21:41.472Z,9.67
2023-01-22T23:24:29.605Z,6.73
2023-01-22T23:27:16.186Z,7.03
2023-01-22T23:30:02.672Z,3.70
2023-01-22T23:32:48.936Z,6.90
2023-01-22T23:35:37.639Z,5.30
2023-01-22T23:38:23.985Z,6.73
2023-01-22T23:41:12.480Z,5.47
2023-01-22T23:43:58.629Z,6.60
2023-01-22T23:46:45.795Z,6.03
2023-01-22T23:49:32.004Z,5.57
2023-01-22T23:52:18.471Z,5.63
2023-01-22T23:55:05.011Z,4.57
2023-01-22T23:57:52.515Z,5.10
